sensor_id;sensor_type;location;lat;lon;timestamp;pressure;altitude;pressure_sealevel;temperature;humidity
75699;BME280;64313;51.018;13.742;2024-01-27T00:00:35;100798.81;;;4.89;67.35
75699;BME280;64313;51.018;13.742;2024-01-27T00:03:00;100788.66;;;4.85;67.91
75699;BME280;64313;51.018;13.742;2024-01-27T00:05:26;100809.81;;;4.85;67.62
75699;BME280;64313;51.018;13.742;2024-01-27T00:07:51;100801.16;;;4.83;67.50
75699;BME280;64313;51.018;13.742;2024-01-27T00:10:16;100811.88;;;4.81;66.83
75699;BME280;64313;51.018;13.742;2024-01-27T00:12:41;100816.34;;;4.81;67.97
75699;BME280;64313;51.018;13.742;2024-01-27T00:15:07;100808.41;;;4.81;67.27
75699;BME280;64313;51.018;13.742;2024-01-27T00:17:33;100811.06;;;4.81;67.63
75699;BME280;64313;51.018;13.742;2024-01-27T00:20:00;100817.31;;;4.80;68.54
75699;BME280;64313;51.018;13.742;2024-01-27T00:22:25;100813.84;;;4.79;68.14
75699;BME280;64313;51.018;13.742;2024-01-27T00:24:51;100823.75;;;4.77;68.39
75699;BME280;64313;51.018;13.742;2024-01-27T00:27:16;100820.13;;;4.78;68.09
75699;BME280;64313;51.018;13.742;2024-01-27T00:29:41;100818.56;;;4.76;67.79
75699;BME280;64313;51.018;13.742;2024-01-27T00:32:07;100820.28;;;4.77;67.81
75699;BME280;64313;51.018;13.742;2024-01-27T00:34:32;100842.34;;;4.76;68.01
75699;BME280;64313;51.018;13.742;2024-01-27T00:36:58;100833.59;;;4.75;67.71
75699;BME280;64313;51.018;13.742;2024-01-27T00:39:23;100832.09;;;4.73;68.48
75699;BME280;64313;51.018;13.742;2024-01-27T00:41:48;100840.00;;;4.73;68.60
75699;BME280;64313;51.018;13.742;2024-01-27T00:44:14;100838.34;;;4.72;68.72
75699;BME280;64313;51.018;13.742;2024-01-27T00:46:39;100836.81;;;4.69;68.44
75699;BME280;64313;51.018;13.742;2024-01-27T00:49:04;100855.31;;;4.69;68.65
75699;BME280;64313;51.018;13.742;2024-01-27T00:51:30;100848.50;;;4.67;68.75
75699;BME280;64313;51.018;13.742;2024-01-27T00:53:55;100849.34;;;4.67;68.87
75699;BME280;64313;51.018;13.742;2024-01-27T00:56:20;100847.81;;;4.65;68.94
75699;BME280;64313;51.018;13.742;2024-01-27T00:58:46;100859.34;;;4.63;68.49
75699;BME280;64313;51.018;13.742;2024-01-27T01:01:11;100861.31;;;4.61;68.72
75699;BME280;64313;51.018;13.742;2024-01-27T01:03:36;100866.72;;;4.60;68.72
75699;BME280;64313;51.018;13.742;2024-01-27T01:06:02;100868.69;;;4.58;68.47
75699;BME280;64313;51.018;13.742;2024-01-27T01:08:28;100876.72;;;4.56;68.34
75699;BME280;64313;51.018;13.742;2024-01-27T01:10:53;100873.25;;;4.56;67.98
75699;BME280;64313;51.018;13.742;2024-01-27T01:13:18;100874.25;;;4.55;68.55
75699;BME280;64313;51.018;13.742;2024-01-27T01:15:43;100882.16;;;4.55;68.45
75699;BME280;64313;51.018;13.742;2024-01-27T01:18:09;100879.66;;;4.53;68.70
75699;BME280;64313;51.018;13.742;2024-01-27T01:20:34;100883.44;;;4.51;68.54
75699;BME280;64313;51.018;13.742;2024-01-27T01:22:59;100885.22;;;4.50;69.09
75699;BME280;64313;51.018;13.742;2024-01-27T01:25:25;100893.13;;;4.50;69.66
75699;BME280;64313;51.018;13.742;2024-01-27T01:27:50;100894.13;;;4.49;69.25
75699;BME280;64313;51.018;13.742;2024-01-27T01:30:16;100893.44;;;4.47;69.28
75699;BME280;64313;51.018;13.742;2024-01-27T01:32:42;100892.75;;;4.45;68.67
75699;BME280;64313;51.018;13.742;2024-01-27T01:35:07;100891.19;;;4.43;69.30
75699;BME280;64313;51.018;13.742;2024-01-27T01:37:33;100899.13;;;4.43;68.85
75699;BME280;64313;51.018;13.742;2024-01-27T01:39:58;100905.38;;;4.42;68.45
75699;BME280;64313;51.018;13.742;2024-01-27T01:42:24;100902.75;;;4.42;68.93
75699;BME280;64313;51.018;13.742;2024-01-27T01:44:50;100888.84;;;4.40;69.09
75699;BME280;64313;51.018;13.742;2024-01-27T01:47:16;100904.84;;;4.38;69.06
75699;BME280;64313;51.018;13.742;2024-01-27T01:49:41;100895.22;;;4.37;69.20
75699;BME280;64313;51.018;13.742;2024-01-27T01:52:07;100907.59;;;4.37;69.15
75699;BME280;64313;51.018;13.742;2024-01-27T01:54:32;100890.94;;;4.36;69.06
75699;BME280;64313;51.018;13.742;2024-01-27T01:56:58;100895.38;;;4.35;68.72
75699;BME280;64313;51.018;13.742;2024-01-27T01:59:24;100902.63;;;4.33;67.57
75699;BME280;64313;51.018;13.742;2024-01-27T02:01:49;100907.06;;;4.33;67.82
75699;BME280;64313;51.018;13.742;2024-01-27T02:04:14;100906.34;;;4.31;67.54
75699;BME280;64313;51.018;13.742;2024-01-27T02:06:40;100914.25;;;4.31;68.15
75699;BME280;64313;51.018;13.742;2024-01-27T02:09:05;100912.59;;;4.30;67.67
75699;BME280;64313;51.018;13.742;2024-01-27T02:11:30;100907.31;;;4.30;68.48
75699;BME280;64313;51.018;13.742;2024-01-27T02:13:56;100908.28;;;4.29;68.18
75699;BME280;64313;51.018;13.742;2024-01-27T02:16:21;100923.31;;;4.28;68.35
75699;BME280;64313;51.018;13.742;2024-01-27T02:18:47;100916.22;;;4.29;67.59
75699;BME280;64313;51.018;13.742;2024-01-27T02:21:12;100912.75;;;4.28;67.74
75699;BME280;64313;51.018;13.742;2024-01-27T02:23:37;100934.03;;;4.27;67.03
75699;BME280;64313;51.018;13.742;2024-01-27T02:26:02;100917.34;;;4.26;66.84
75699;BME280;64313;51.018;13.742;2024-01-27T02:28:28;100909.41;;;4.26;67.09
75699;BME280;64313;51.018;13.742;2024-01-27T02:30:57;100905.13;;;4.25;67.52
75699;BME280;64313;51.018;13.742;2024-01-27T02:33:22;100900.66;;;4.26;67.98
75699;BME280;64313;51.018;13.742;2024-01-27T02:35:47;100906.06;;;4.24;67.05
75699;BME280;64313;51.018;13.742;2024-01-27T02:38:13;100899.94;;;4.24;66.89
75699;BME280;64313;51.018;13.742;2024-01-27T02:40:38;100918.56;;;4.22;67.38
75699;BME280;64313;51.018;13.742;2024-01-27T02:43:03;100918.72;;;4.21;66.52
75699;BME280;64313;51.018;13.742;2024-01-27T02:45:29;100917.88;;;4.20;67.35
75699;BME280;64313;51.018;13.742;2024-01-27T02:47:54;100918.97;;;4.18;66.31
75699;BME280;64313;51.018;13.742;2024-01-27T02:50:19;100922.44;;;4.18;66.25
75699;BME280;64313;51.018;13.742;2024-01-27T02:52:45;100927.88;;;4.17;66.11
75699;BME280;64313;51.018;13.742;2024-01-27T02:55:10;100924.41;;;4.16;66.88
75699;BME280;64313;51.018;13.742;2024-01-27T02:57:35;100925.53;;;4.14;66.99
75699;BME280;64313;51.018;13.742;2024-01-27T03:00:01;100932.72;;;4.12;66.54
75699;BME280;64313;51.018;13.742;2024-01-27T03:02:26;100932.88;;;4.10;67.14
75699;BME280;64313;51.018;13.742;2024-01-27T03:04:51;100937.59;;;4.06;66.89
75699;BME280;64313;51.018;13.742;2024-01-27T03:07:16;100942.03;;;4.06;67.01
75699;BME280;64313;51.018;13.742;2024-01-27T03:09:42;100944.94;;;4.03;67.18
75699;BME280;64313;51.018;13.742;2024-01-27T03:12:07;100958.13;;;4.03;66.67
75699;BME280;64313;51.018;13.742;2024-01-27T03:14:33;100951.19;;;4.02;66.52
75699;BME280;64313;51.018;13.742;2024-01-27T03:16:58;100970.66;;;4.01;66.48
75699;BME280;64313;51.018;13.742;2024-01-27T03:19:23;100968.16;;;3.99;66.33
75699;BME280;64313;51.018;13.742;2024-01-27T03:21:49;100966.34;;;4.00;66.04
75699;BME280;64313;51.018;13.742;2024-01-27T03:24:14;100974.38;;;3.98;65.96
75699;BME280;64313;51.018;13.742;2024-01-27T03:26:39;100973.53;;;3.98;66.48
75699;BME280;64313;51.018;13.742;2024-01-27T03:29:04;100972.69;;;3.97;65.90
75699;BME280;64313;51.018;13.742;2024-01-27T03:31:30;100986.03;;;3.96;66.16
75699;BME280;64313;51.018;13.742;2024-01-27T03:33:56;100976.47;;;3.95;66.37
75699;BME280;64313;51.018;13.742;2024-01-27T03:36:21;100977.28;;;3.95;66.25
75699;BME280;64313;51.018;13.742;2024-01-27T03:38:47;100975.75;;;3.93;65.99
75699;BME280;64313;51.018;13.742;2024-01-27T03:41:12;100988.09;;;3.92;66.08
75699;BME280;64313;51.018;13.742;2024-01-27T03:43:37;100988.09;;;3.92;66.49
75699;BME280;64313;51.018;13.742;2024-01-27T03:46:03;100987.53;;;3.89;65.88
75699;BME280;64313;51.018;13.742;2024-01-27T03:48:28;100988.53;;;3.88;65.51
75699;BME280;64313;51.018;13.742;2024-01-27T03:50:53;100987.53;;;3.89;65.83
75699;BME280;64313;51.018;13.742;2024-01-27T03:53:18;101000.88;;;3.87;65.63
75699;BME280;64313;51.018;13.742;2024-01-27T03:55:44;100994.78;;;3.87;65.21
75699;BME280;64313;51.018;13.742;2024-01-27T03:58:09;100998.34;;;3.86;65.75
75699;BME280;64313;51.018;13.742;2024-01-27T04:00:34;100992.38;;;3.84;65.58
75699;BME280;64313;51.018;13.742;2024-01-27T04:03:00;100991.53;;;3.83;65.08
75699;BME280;64313;51.018;13.742;2024-01-27T04:05:26;100994.19;;;3.83;66.30
75699;BME280;64313;51.018;13.742;2024-01-27T04:07:51;100999.59;;;3.82;65.02
75699;BME280;64313;51.018;13.742;2024-01-27T04:10:17;101003.06;;;3.82;65.57
75699;BME280;64313;51.018;13.742;2024-01-27T04:12:43;101003.22;;;3.80;65.28
75699;BME280;64313;51.018;13.742;2024-01-27T04:15:08;101022.53;;;3.81;66.01
75699;BME280;64313;51.018;13.742;2024-01-27T04:17:34;101016.41;;;3.80;65.22
75699;BME280;64313;51.018;13.742;2024-01-27T04:19:59;101009.44;;;3.79;65.58
75699;BME280;64313;51.018;13.742;2024-01-27T04:22:24;101019.88;;;3.81;65.19
75699;BME280;64313;51.018;13.742;2024-01-27T04:24:49;101016.53;;;3.79;65.41
75699;BME280;64313;51.018;13.742;2024-01-27T04:27:15;101021.78;;;3.79;65.89
75699;BME280;64313;51.018;13.742;2024-01-27T04:29:40;101033.19;;;3.79;64.97
75699;BME280;64313;51.018;13.742;2024-01-27T04:32:07;101028.03;;;3.78;65.09
75699;BME280;64313;51.018;13.742;2024-01-27T04:34:32;101033.19;;;3.79;64.77
75699;BME280;64313;51.018;13.742;2024-01-27T04:36:57;101030.69;;;3.78;64.95
75699;BME280;64313;51.018;13.742;2024-01-27T04:39:23;101026.38;;;3.77;64.93
75699;BME280;64313;51.018;13.742;2024-01-27T04:41:48;101009.84;;;3.75;65.42
75699;BME280;64313;51.018;13.742;2024-01-27T04:44:14;101028.44;;;3.73;65.22
75699;BME280;64313;51.018;13.742;2024-01-27T04:46:39;101033.72;;;3.73;65.58
75699;BME280;64313;51.018;13.742;2024-01-27T04:49:04;101037.44;;;3.71;65.63
75699;BME280;64313;51.018;13.742;2024-01-27T04:51:30;101024.41;;;3.69;66.14
75699;BME280;64313;51.018;13.742;2024-01-27T04:53:55;101032.47;;;3.68;65.96
75699;BME280;64313;51.018;13.742;2024-01-27T04:56:21;101029.09;;;3.66;66.28
75699;BME280;64313;51.018;13.742;2024-01-27T04:58:46;101035.34;;;3.65;66.08
75699;BME280;64313;51.018;13.742;2024-01-27T05:01:11;101031.03;;;3.64;66.02
75699;BME280;64313;51.018;13.742;2024-01-27T05:03:37;101024.09;;;3.63;66.57
75699;BME280;64313;51.018;13.742;2024-01-27T05:06:03;101023.41;;;3.61;66.03
75699;BME280;64313;51.018;13.742;2024-01-27T05:08:28;101015.59;;;3.59;66.91
75699;BME280;64313;51.018;13.742;2024-01-27T05:10:53;101021.00;;;3.58;66.66
75699;BME280;64313;51.018;13.742;2024-01-27T05:13:19;101014.91;;;3.57;66.26
75699;BME280;64313;51.018;13.742;2024-01-27T05:15:44;101033.50;;;3.56;66.79
75699;BME280;64313;51.018;13.742;2024-01-27T05:18:09;101040.56;;;3.55;66.92
75699;BME280;64313;51.018;13.742;2024-01-27T05:20:35;101038.78;;;3.56;66.05
75699;BME280;64313;51.018;13.742;2024-01-27T05:23:00;101058.19;;;3.55;66.88
75699;BME280;64313;51.018;13.742;2024-01-27T05:25:25;101053.75;;;3.55;66.99
75699;BME280;64313;51.018;13.742;2024-01-27T05:27:51;101059.03;;;3.55;66.37
75699;BME280;64313;51.018;13.742;2024-01-27T05:30:16;101054.69;;;3.54;66.80
75699;BME280;64313;51.018;13.742;2024-01-27T05:32:41;101059.97;;;3.54;66.39
75699;BME280;64313;51.018;13.742;2024-01-27T05:35:07;101056.50;;;3.53;67.23
75699;BME280;64313;51.018;13.742;2024-01-27T05:37:33;101063.47;;;3.55;67.04
75699;BME280;64313;51.018;13.742;2024-01-27T05:39:58;101063.59;;;3.53;67.32
75699;BME280;64313;51.018;13.742;2024-01-27T05:42:23;101073.16;;;3.54;67.24
75699;BME280;64313;51.018;13.742;2024-01-27T05:44:49;101068.75;;;3.55;66.58
75699;BME280;64313;51.018;13.742;2024-01-27T05:47:14;101070.53;;;3.54;66.30
75699;BME280;64313;51.018;13.742;2024-01-27T05:49:39;101075.69;;;3.56;67.38
75699;BME280;64313;51.018;13.742;2024-01-27T05:52:05;101087.91;;;3.57;66.50
75699;BME280;64313;51.018;13.742;2024-01-27T05:54:30;101088.75;;;3.57;66.97
75699;BME280;64313;51.018;13.742;2024-01-27T05:56:55;101098.47;;;3.57;67.39
75699;BME280;64313;51.018;13.742;2024-01-27T05:59:21;101087.91;;;3.57;67.17
75699;BME280;64313;51.018;13.742;2024-01-27T06:01:46;101094.84;;;3.58;66.79
75699;BME280;64313;51.018;13.742;2024-01-27T06:04:11;101099.16;;;3.59;66.80
75699;BME280;64313;51.018;13.742;2024-01-27T06:06:40;101095.69;;;3.58;67.03
75699;BME280;64313;51.018;13.742;2024-01-27T06:09:05;101090.41;;;3.58;66.83
75699;BME280;64313;51.018;13.742;2024-01-27T06:11:31;101101.81;;;3.59;66.96
75699;BME280;64313;51.018;13.742;2024-01-27T06:13:56;101096.53;;;3.59;67.36
75699;BME280;64313;51.018;13.742;2024-01-27T06:16:23;101103.47;;;3.60;66.88
75699;BME280;64313;51.018;13.742;2024-01-27T06:18:49;101098.19;;;3.60;66.99
75699;BME280;64313;51.018;13.742;2024-01-27T06:21:15;101103.47;;;3.60;67.48
75699;BME280;64313;51.018;13.742;2024-01-27T06:23:40;101099.88;;;3.61;66.86
75699;BME280;64313;51.018;13.742;2024-01-27T06:26:06;101106.94;;;3.60;66.79
75699;BME280;64313;51.018;13.742;2024-01-27T06:28:32;101112.22;;;3.60;66.75
75699;BME280;64313;51.018;13.742;2024-01-27T06:30:57;101100.84;;;3.60;67.38
75699;BME280;64313;51.018;13.742;2024-01-27T06:33:23;101110.44;;;3.61;67.12
75699;BME280;64313;51.018;13.742;2024-01-27T06:35:48;101112.09;;;3.62;66.76
75699;BME280;64313;51.018;13.742;2024-01-27T06:38:13;101120.13;;;3.60;67.50
75699;BME280;64313;51.018;13.742;2024-01-27T06:40:39;101136.81;;;3.61;67.23
75699;BME280;64313;51.018;13.742;2024-01-27T06:43:04;101127.09;;;3.61;67.46
75699;BME280;64313;51.018;13.742;2024-01-27T06:45:30;101127.09;;;3.61;66.99
75699;BME280;64313;51.018;13.742;2024-01-27T06:47:55;101129.75;;;3.61;67.56
75699;BME280;64313;51.018;13.742;2024-01-27T06:50:21;101141.13;;;3.62;66.71
75699;BME280;64313;51.018;13.742;2024-01-27T06:52:47;101141.97;;;3.62;66.88
75699;BME280;64313;51.018;13.742;2024-01-27T06:55:12;101137.66;;;3.61;66.97
75699;BME280;64313;51.018;13.742;2024-01-27T06:57:38;101141.13;;;3.62;67.39
75699;BME280;64313;51.018;13.742;2024-01-27T07:00:03;101145.44;;;3.63;67.16
75699;BME280;64313;51.018;13.742;2024-01-27T07:02:29;101153.22;;;3.64;67.17
75699;BME280;64313;51.018;13.742;2024-01-27T07:04:57;101161.13;;;3.64;66.85
75699;BME280;64313;51.018;13.742;2024-01-27T07:07:26;101168.91;;;3.66;66.93
75699;BME280;64313;51.018;13.742;2024-01-27T07:09:52;101166.28;;;3.66;66.73
75699;BME280;64313;51.018;13.742;2024-01-27T07:12:17;101162.56;;;3.68;67.32
75699;BME280;64313;51.018;13.742;2024-01-27T07:14:43;101167.84;;;3.68;67.50
75699;BME280;64313;51.018;13.742;2024-01-27T07:17:08;101174.91;;;3.68;66.99
75699;BME280;64313;51.018;13.742;2024-01-27T07:19:33;101190.75;;;3.68;67.40
75699;BME280;64313;51.018;13.742;2024-01-27T07:21:59;101191.56;;;3.68;67.49
75699;BME280;64313;51.018;13.742;2024-01-27T07:24:29;101199.50;;;3.68;67.36
75699;BME280;64313;51.018;13.742;2024-01-27T07:26:54;101193.25;;;3.69;67.09
75699;BME280;64313;51.018;13.742;2024-01-27T07:29:19;101190.47;;;3.71;67.17
75699;BME280;64313;51.018;13.742;2024-01-27T07:31:45;101188.66;;;3.71;67.25
75699;BME280;64313;51.018;13.742;2024-01-27T07:34:10;101196.59;;;3.71;66.90
75699;BME280;64313;51.018;13.742;2024-01-27T07:36:36;101191.16;;;3.73;68.01
75699;BME280;64313;51.018;13.742;2024-01-27T07:39:01;101197.19;;;3.75;67.42
75699;BME280;64313;51.018;13.742;2024-01-27T07:41:26;101211.22;;;3.75;67.57
75699;BME280;64313;51.018;13.742;2024-01-27T07:43:54;101200.53;;;3.77;67.29
75699;BME280;64313;51.018;13.742;2024-01-27T07:46:19;101204.81;;;3.78;68.00
75699;BME280;64313;51.018;13.742;2024-01-27T07:48:47;101193.19;;;3.80;67.92
75699;BME280;64313;51.018;13.742;2024-01-27T07:51:13;101193.91;;;3.83;67.40
75699;BME280;64313;51.018;13.742;2024-01-27T07:53:38;101198.22;;;3.84;67.31
75699;BME280;64313;51.018;13.742;2024-01-27T07:56:03;101202.50;;;3.85;67.55
75699;BME280;64313;51.018;13.742;2024-01-27T07:58:29;101207.78;;;3.85;67.57
75699;BME280;64313;51.018;13.742;2024-01-27T08:00:54;101208.53;;;3.87;67.78
75699;BME280;64313;51.018;13.742;2024-01-27T08:03:19;101212.84;;;3.88;66.98
75699;BME280;64313;51.018;13.742;2024-01-27T08:05:45;101223.25;;;3.89;67.04
75699;BME280;64313;51.018;13.742;2024-01-27T08:08:10;101223.13;;;3.91;67.45
75699;BME280;64313;51.018;13.742;2024-01-27T08:10:35;101215.91;;;3.93;67.48
75699;BME280;64313;51.018;13.742;2024-01-27T08:13:01;101232.59;;;3.93;67.59
75699;BME280;64313;51.018;13.742;2024-01-27T08:15:27;101217.47;;;3.95;67.38
75699;BME280;64313;51.018;13.742;2024-01-27T08:17:52;101216.50;;;3.96;68.19
75699;BME280;64313;51.018;13.742;2024-01-27T08:20:17;101219.00;;;3.98;67.43
75699;BME280;64313;51.018;13.742;2024-01-27T08:22:43;101221.53;;;3.99;67.57
75699;BME280;64313;51.018;13.742;2024-01-27T08:25:08;101221.53;;;3.99;67.47
75699;BME280;64313;51.018;13.742;2024-01-27T08:27:34;101239.88;;;4.01;67.50
75699;BME280;64313;51.018;13.742;2024-01-27T08:29:59;101237.94;;;4.03;67.95
75699;BME280;64313;51.018;13.742;2024-01-27T08:32:25;101235.28;;;4.03;68.02
75699;BME280;64313;51.018;13.742;2024-01-27T08:34:50;101239.59;;;4.04;67.99
75699;BME280;64313;51.018;13.742;2024-01-27T08:37:18;101238.63;;;4.05;67.47
75699;BME280;64313;51.018;13.742;2024-01-27T08:39:44;101247.38;;;4.05;67.61
75699;BME280;64313;51.018;13.742;2024-01-27T08:42:09;101255.22;;;4.07;67.68
75699;BME280;64313;51.018;13.742;2024-01-27T08:44:35;101258.81;;;4.06;68.19
75699;BME280;64313;51.018;13.742;2024-01-27T08:47:00;101252.66;;;4.05;67.79
75699;BME280;64313;51.018;13.742;2024-01-27T08:49:25;101263.00;;;4.08;67.57
75699;BME280;64313;51.018;13.742;2024-01-27T08:51:50;101270.91;;;4.08;67.57
75699;BME280;64313;51.018;13.742;2024-01-27T08:54:16;101271.88;;;4.07;68.36
75699;BME280;64313;51.018;13.742;2024-01-27T08:56:41;101275.22;;;4.10;67.68
75699;BME280;64313;51.018;13.742;2024-01-27T08:59:06;101283.00;;;4.11;67.57
75699;BME280;64313;51.018;13.742;2024-01-27T09:01:32;101281.34;;;4.10;67.95
75699;BME280;64313;51.018;13.742;2024-01-27T09:03:57;101289.13;;;4.12;68.08
75699;BME280;64313;51.018;13.742;2024-01-27T09:06:22;101285.53;;;4.13;67.85
75699;BME280;64313;51.018;13.742;2024-01-27T09:08:48;101298.59;;;4.14;68.00
75699;BME280;64313;51.018;13.742;2024-01-27T09:11:13;101297.63;;;4.15;67.98
75699;BME280;64313;51.018;13.742;2024-01-27T09:13:38;101301.94;;;4.16;68.17
75699;BME280;64313;51.018;13.742;2024-01-27T09:16:03;101293.06;;;4.17;68.26
75699;BME280;64313;51.018;13.742;2024-01-27T09:18:29;101301.81;;;4.18;67.44
75699;BME280;64313;51.018;13.742;2024-01-27T09:20:54;101293.78;;;4.19;67.70
75699;BME280;64313;51.018;13.742;2024-01-27T09:23:19;101294.63;;;4.20;67.89
75699;BME280;64313;51.018;13.742;2024-01-27T09:25:45;101307.56;;;4.23;67.38
75699;BME280;64313;51.018;13.742;2024-01-27T09:28:10;101311.88;;;4.24;68.20
75699;BME280;64313;51.018;13.742;2024-01-27T09:30:37;101322.31;;;4.25;67.60
75699;BME280;64313;51.018;13.742;2024-01-27T09:33:02;101312.59;;;4.26;67.63
75699;BME280;64313;51.018;13.742;2024-01-27T09:35:27;101314.97;;;4.29;68.22
75699;BME280;64313;51.018;13.742;2024-01-27T09:37:52;101305.09;;;4.31;67.71
75699;BME280;64313;51.018;13.742;2024-01-27T09:40:18;101305.69;;;4.34;68.26
75699;BME280;64313;51.018;13.742;2024-01-27T09:42:53;101309.88;;;4.37;67.55
75699;BME280;64313;51.018;13.742;2024-01-27T09:45:22;101301.72;;;4.40;67.14
75699;BME280;64313;51.018;13.742;2024-01-27T09:47:47;101310.19;;;4.44;68.26
75699;BME280;64313;51.018;13.742;2024-01-27T09:50:14;101312.47;;;4.48;67.63
75699;BME280;64313;51.018;13.742;2024-01-27T09:52:39;101314.13;;;4.49;68.33
75699;BME280;64313;51.018;13.742;2024-01-27T09:55:05;101313.88;;;4.52;67.44
75699;BME280;64313;51.018;13.742;2024-01-27T09:57:30;101310.16;;;4.55;66.59
75699;BME280;64313;51.018;13.742;2024-01-27T09:59:56;101310.00;;;4.56;67.41
75699;BME280;64313;51.018;13.742;2024-01-27T10:02:28;101302.81;;;4.58;67.64
75699;BME280;64313;51.018;13.742;2024-01-27T10:04:57;101307.13;;;4.59;67.98
75699;BME280;64313;51.018;13.742;2024-01-27T10:07:22;101308.66;;;4.62;67.49
75699;BME280;64313;51.018;13.742;2024-01-27T10:09:49;101316.56;;;4.62;67.31
75699;BME280;64313;51.018;13.742;2024-01-27T10:12:15;101315.59;;;4.63;66.83
75699;BME280;64313;51.018;13.742;2024-01-27T10:14:42;101314.66;;;4.64;67.11
75699;BME280;64313;51.018;13.742;2024-01-27T10:17:11;101299.50;;;4.66;67.48
75699;BME280;64313;51.018;13.742;2024-01-27T10:19:37;101316.06;;;4.68;67.22
75699;BME280;64313;51.018;13.742;2024-01-27T10:22:02;101309.81;;;4.69;67.63
75699;BME280;64313;51.018;13.742;2024-01-27T10:24:29;101312.34;;;4.71;66.63
75699;BME280;64313;51.018;13.742;2024-01-27T10:27:02;101309.56;;;4.72;67.55
75699;BME280;64313;51.018;13.742;2024-01-27T10:29:28;101305.09;;;4.73;67.56
75699;BME280;64313;51.018;13.742;2024-01-27T10:31:54;101299.53;;;4.76;67.40
75699;BME280;64313;51.018;13.742;2024-01-27T10:34:20;101315.28;;;4.77;67.39
75699;BME280;64313;51.018;13.742;2024-01-27T10:36:45;101305.41;;;4.79;67.50
75699;BME280;64313;51.018;13.742;2024-01-27T10:39:15;101303.47;;;4.81;67.68
75699;BME280;64313;51.018;13.742;2024-01-27T10:41:42;101300.69;;;4.83;66.94
75699;BME280;64313;51.018;13.742;2024-01-27T10:44:13;101313.66;;;4.86;67.11
75699;BME280;64313;51.018;13.742;2024-01-27T10:46:40;101312.69;;;4.87;67.53
75699;BME280;64313;51.018;13.742;2024-01-27T10:49:08;101316.88;;;4.89;67.21
75699;BME280;64313;51.018;13.742;2024-01-27T10:51:36;101322.88;;;4.92;67.83
75699;BME280;64313;51.018;13.742;2024-01-27T10:54:03;101324.41;;;4.94;67.30
75699;BME280;64313;51.018;13.742;2024-01-27T10:56:32;101321.50;;;4.97;66.91
75699;BME280;64313;51.018;13.742;2024-01-27T10:58:58;101328.34;;;5.00;67.09
75699;BME280;64313;51.018;13.742;2024-01-27T11:01:23;101330.84;;;5.01;66.76
75699;BME280;64313;51.018;13.742;2024-01-27T11:03:49;101332.50;;;5.02;66.57
75699;BME280;64313;51.018;13.742;2024-01-27T11:06:19;101331.56;;;5.03;67.08
75699;BME280;64313;51.018;13.742;2024-01-27T11:08:46;101327.94;;;5.04;66.99
75699;BME280;64313;51.018;13.742;2024-01-27T11:11:12;101333.94;;;5.06;67.30
75699;BME280;64313;51.018;13.742;2024-01-27T11:13:37;101330.31;;;5.07;66.27
75699;BME280;64313;51.018;13.742;2024-01-27T11:16:04;101337.25;;;5.08;66.83
75699;BME280;64313;51.018;13.742;2024-01-27T11:18:29;101341.47;;;5.11;66.95
75699;BME280;64313;51.018;13.742;2024-01-27T11:20:55;101338.69;;;5.12;67.33
75699;BME280;64313;51.018;13.742;2024-01-27T11:23:31;101343.72;;;5.15;67.77
75699;BME280;64313;51.018;13.742;2024-01-27T11:26:07;101330.22;;;5.19;66.95
75699;BME280;64313;51.018;13.742;2024-01-27T11:28:33;101336.22;;;5.21;67.72
75699;BME280;64313;51.018;13.742;2024-01-27T11:31:03;101344.59;;;5.26;67.35
75699;BME280;64313;51.018;13.742;2024-01-27T11:33:28;101348.66;;;5.30;67.33
75699;BME280;64313;51.018;13.742;2024-01-27T11:36:00;101335.97;;;5.33;66.17
75699;BME280;64313;51.018;13.742;2024-01-27T11:38:26;101345.47;;;5.36;65.87
75699;BME280;64313;51.018;13.742;2024-01-27T11:40:51;101340.72;;;5.39;66.42
75699;BME280;64313;51.018;13.742;2024-01-27T11:43:16;101333.63;;;5.40;66.41
75699;BME280;64313;51.018;13.742;2024-01-27T11:45:42;101341.31;;;5.43;66.13
75699;BME280;64313;51.018;13.742;2024-01-27T11:48:07;101341.03;;;5.46;66.31
75699;BME280;64313;51.018;13.742;2024-01-27T11:50:32;101341.88;;;5.47;66.07
75699;BME280;64313;51.018;13.742;2024-01-27T11:52:57;101342.44;;;5.50;66.33
75699;BME280;64313;51.018;13.742;2024-01-27T11:55:23;101340.25;;;5.55;66.42
75699;BME280;64313;51.018;13.742;2024-01-27T11:57:48;101345.00;;;5.61;66.15
75699;BME280;64313;51.018;13.742;2024-01-27T12:00:14;101334.97;;;5.65;65.00
75699;BME280;64313;51.018;13.742;2024-01-27T12:02:39;101338.03;;;5.70;65.49
75699;BME280;64313;51.018;13.742;2024-01-27T12:05:05;101341.25;;;5.74;65.21
75699;BME280;64313;51.018;13.742;2024-01-27T12:07:31;101335.44;;;5.80;64.64
75699;BME280;64313;51.018;13.742;2024-01-27T12:09:56;101340.28;;;5.84;65.81
75699;BME280;64313;51.018;13.742;2024-01-27T12:12:21;101333.59;;;5.90;64.41
75699;BME280;64313;51.018;13.742;2024-01-27T12:14:49;101327.09;;;5.94;65.19
75699;BME280;64313;51.018;13.742;2024-01-27T12:17:16;101332.81;;;5.99;64.16
75699;BME280;64313;51.018;13.742;2024-01-27T12:19:48;101329.47;;;6.07;64.33
75699;BME280;64313;51.018;13.742;2024-01-27T12:22:24;101327.25;;;6.12;63.77
75699;BME280;64313;51.018;13.742;2024-01-27T12:25:08;101336.31;;;6.19;62.34
75699;BME280;64313;51.018;13.742;2024-01-27T12:27:33;101330.56;;;6.23;62.45
75699;BME280;64313;51.018;13.742;2024-01-27T12:30:00;101333.66;;;6.29;63.30
75699;BME280;64313;51.018;13.742;2024-01-27T12:32:25;101337.72;;;6.33;61.37
75699;BME280;64313;51.018;13.742;2024-01-27T12:34:50;101342.72;;;6.36;61.84
75699;BME280;64313;51.018;13.742;2024-01-27T12:37:15;101343.13;;;6.41;61.63
75699;BME280;64313;51.018;13.742;2024-01-27T12:39:44;101337.41;;;6.45;61.60
75699;BME280;64313;51.018;13.742;2024-01-27T12:42:10;101342.28;;;6.50;61.67